»·PEaware :: N259DS KSBA-KBFL

N259DS :: KSBA-KBFL

FLIGHT INFORMATION

Flight Status: Arrived
Operator: Privately registered:
United States
More flights under this callsign
Pilot: Pratham R. (19019)
Aircraft: SOCATA TBM-900
(TBM9)
More flights by this aircraft type
Origin: KSBA Santa Barbara Mun
United States
Destination: KBFL Meadows
United States
More flights between these airports :: More routes between these airports
Route: +FLOUT5 RZS V183 STIGR BFL
File this flight plan on PilotEdge
Remarks:
Altitude:
(Current/Filed)
9,000ft
Speed:
(Current/Filed)
195kts
Departed: 01-Dec-19 07:51 PM
Arrived: 01-Dec-19 08:27 PM
Distance/Time
Traveled:
72nm/0:36
Distance/Time
To Go:
Arrived

Flight Plot

Page will automatically refresh every two minutes.

Flight plan parsing failed; only flown route is shown


Map Options




Map Legend


Flown Route
Filed Route
Departure Airport
Arrival Airport
Navaid (VOR, NDB)
Fix

Horizontal Profiles

Position Reports

Time Latitude Longitude Heading Altitude Ground
Speed
01-Dec-19 19:12 34.422653 -119.835589 340 10ft 0kts
01-Dec-19 19:13 34.422653 -119.835589 340 10ft 0kts
01-Dec-19 19:14 34.422653 -119.835589 340 10ft 0kts
01-Dec-19 19:15 34.422653 -119.835589 340 10ft 0kts
01-Dec-19 19:16 34.422653 -119.835589 340 10ft 0kts
01-Dec-19 19:17 34.422653 -119.835589 340 10ft 0kts
01-Dec-19 19:18 34.422653 -119.835589 340 10ft 0kts
01-Dec-19 19:19 34.422653 -119.835589 340 10ft 0kts
01-Dec-19 19:20 34.422653 -119.835589 340 10ft 0kts
01-Dec-19 19:21 34.422653 -119.835589 340 10ft 0kts
01-Dec-19 19:22 34.422653 -119.835589 340 10ft 0kts
01-Dec-19 19:23 34.422653 -119.835589 340 10ft 0kts
01-Dec-19 19:24 34.422653 -119.835589 340 10ft 0kts
01-Dec-19 19:25 34.422653 -119.835589 340 10ft 0kts
01-Dec-19 19:26 34.422653 -119.835589 340 10ft 0kts
01-Dec-19 19:27 34.422653 -119.835589 340 10ft 0kts
01-Dec-19 19:28 34.422653 -119.835589 340 10ft 0kts
01-Dec-19 19:29 34.422653 -119.835589 340 10ft 0kts
01-Dec-19 19:30 34.422653 -119.835589 340 10ft 0kts
01-Dec-19 19:31 34.422653 -119.835589 340 10ft 0kts
01-Dec-19 19:32 34.422653 -119.835589 340 10ft 0kts
01-Dec-19 19:33 34.422653 -119.835589 340 10ft 0kts
01-Dec-19 19:34 34.422653 -119.835589 340 10ft 0kts
01-Dec-19 19:35 34.422653 -119.835589 340 10ft 0kts
01-Dec-19 19:36 34.422653 -119.835589 340 10ft 0kts
01-Dec-19 19:37 34.422653 -119.835589 340 10ft 0kts
01-Dec-19 19:38 34.422653 -119.835589 340 10ft 0kts
01-Dec-19 19:39 34.422771 -119.836049 267 10ft 5kts
01-Dec-19 19:40 34.423145 -119.837321 355 11ft 6kts
01-Dec-19 19:41 34.425460 -119.837964 346 11ft 9kts
01-Dec-19 19:42 34.426683 -119.839274 267 11ft 6kts
01-Dec-19 19:43 34.426604 -119.842702 268 13ft 8kts
01-Dec-19 19:44 34.426507 -119.847652 267 13ft 17kts
01-Dec-19 19:45 34.426751 -119.850672 222 13ft 0kts
01-Dec-19 19:46 34.426751 -119.850672 222 13ft 0kts
01-Dec-19 19:47 34.426596 -119.850851 229 13ft 5kts
01-Dec-19 19:48 34.426616 -119.853731 314 13ft 5kts
01-Dec-19 19:49 34.427524 -119.853710 90 13ft 2kts
01-Dec-19 19:50 34.427499 -119.830488 98 682ft 117kts
01-Dec-19 19:51 34.402247 -119.835206 234 2458ft 143kts
01-Dec-19 19:52 34.375446 -119.867282 205 4072ft 150kts
01-Dec-19 19:53 34.336408 -119.895853 205 5384ft 171kts
01-Dec-19 19:54 34.295223 -119.925848 205 6599ft 170kts
01-Dec-19 19:55 34.264543 -119.964453 277 7766ft 195kts
01-Dec-19 19:56 34.310104 -119.959687 65 8040ft 220kts
01-Dec-19 19:57 34.343546 -119.897007 44 8028ft 224kts
01-Dec-19 19:58 34.398867 -119.857355 32 8843ft 234kts
01-Dec-19 19:59 34.458681 -119.816671 32 9017ft 259kts
01-Dec-19 20:00 34.517271 -119.765706 32 9013ft 266kts
01-Dec-19 20:01 34.582626 -119.721133 31 9010ft 268kts
01-Dec-19 20:02 34.648074 -119.676402 31 9011ft 269kts
01-Dec-19 20:03 34.713769 -119.631418 31 9011ft 267kts
01-Dec-19 20:04 34.776833 -119.588167 32 9008ft 254kts
01-Dec-19 20:05 34.838134 -119.546037 32 9011ft 251kts
01-Dec-19 20:06 34.899114 -119.504047 32 9004ft 246kts
01-Dec-19 20:07 34.957626 -119.463703 31 8978ft 236kts
01-Dec-19 20:08 35.014345 -119.424535 30 8985ft 232kts
01-Dec-19 20:09 35.067615 -119.387704 30 8976ft 230kts
01-Dec-19 20:10 35.122015 -119.350033 31 8262ft 223kts
01-Dec-19 20:11 35.172464 -119.315035 32 6895ft 198kts
01-Dec-19 20:12 35.218884 -119.282702 32 6918ft 229kts
01-Dec-19 20:13 35.275477 -119.242985 32 6336ft 214kts
01-Dec-19 20:14 35.321888 -119.211216 32 5435ft 186kts
01-Dec-19 20:15 35.368935 -119.179053 32 4673ft 196kts
01-Dec-19 20:16 35.417002 -119.146184 32 3972ft 192kts
01-Dec-19 20:18 35.458588 -119.117858 32 3957ft 151kts
01-Dec-19 20:19 35.495884 -119.121560 312 3327ft 165kts
01-Dec-19 20:20 35.527147 -119.160922 312 2977ft 144kts
01-Dec-19 20:21 35.554408 -119.196948 291 3013ft 158kts
01-Dec-19 20:22 35.528500 -119.210891 132 3015ft 159kts
01-Dec-19 20:23 35.502204 -119.170848 125 2878ft 124kts
01-Dec-19 20:24 35.486340 -119.130658 119 2122ft 122kts
01-Dec-19 20:25 35.466696 -119.098798 138 1250ft 106kts
01-Dec-19 20:26 35.446852 -119.075558 137 823ft 76kts
01-Dec-19 20:27 35.433470 -119.059262 136 481ft 21kts
01-Dec-19 20:28 35.431165 -119.055763 36 479ft 8kts
01-Dec-19 20:29 35.431743 -119.055040 46 482ft 0kts
01-Dec-19 20:30 35.433652 -119.054373 358 490ft 9kts
01-Dec-19 20:31 35.435227 -119.053736 37 498ft 5kts
01-Dec-19 20:32 35.435672 -119.053478 120 500ft 0kts
01-Dec-19 20:33 35.435672 -119.053478 120 500ft 0kts
01-Dec-19 20:34 35.435672 -119.053478 120 500ft 0kts
01-Dec-19 20:35 35.435672 -119.053478 120 500ft 0kts

Navigation Log

Ident Type
Flight plan parsing failed, navigation log unavailable